Sylvan Lake, Michigan
Current Conditions -  °F | °C
As of 1:53 PM on Thursday 27 Nov 2014 (Local Time) from KPTK Reporting Station
Overcast Overcast  
Wind Chill: -7°   Ceiling: 2700
Heat Index: -1°   Visibility: 10mi
Dew Point: -7°   Wind: 13mph
Humidity: 66%   Direction: 300°WNW
Pressure: 30.13"   Gusts: NA
Location:  42.6112°N, 83.3377°W
Report Text: KPTK 271853Z 30011KT 10SM OVC027 M01/M07 A3013 RMK AO2 SLP214 T10111067
Loading
Personal Weather Stations






























Interactive Weather Map New forecast layout! Learn more

10-Day Weather Forecast

Advertisements
Track Severe Weather on mobile